Current | Forecast
Updated: 7:30 AM EEST on April 30, 2017
Observed at Krivvy Rih, Ukraine
Temperature 13°C
Humidity 63%
Dew Point 6°C
Wind North at 0 km/h
Pressure 1017 hPa (Steady)
Conditions Clear
Visibility -
UV N/A
Clouds
Yesterday's Maximum 24°C
Yesterday's Minimum 6°C approx.
Yesterday's Heating Degree Days 6 approx.
Sunrise5:34 AM EEST
Sunset8:01 PM EEST
Moon Rise8:58 AM EEST
Moon Set
Moon PhaseMoon Phase
Waxing Crescent
Raw METARMETAR UKDR 300430Z 00000MPS CAVOK 13/06 Q1017 R18/09//70 NOSIG


Monday
. High: 57° F.
Tuesday
. High: 64° F.
Wednesday
. High: 66° F.
Thursday
. High: 71° F.
Friday
. High: 60° F.
Saturday
. High: 59° F.
Sunday
. High: 68° F.
Monday
. High: 69° F.

Units: English | Metric

Find the Weather for any City, State or Zipcode, or Country:

U.S. State List | Severe Weather | Tropical Storms | Ski Conditions
United States | Canada | Central America | South America | Asia | Europe | Australia | Africa | Islands

Weather Underground

© Copyright 2017
The Weather Company, LLC